This is the latest recevied weather packets stored in our database for station/object VA7SCH-13. If no packets are shown the sender has not sent any weather packets the latest 10 day(s).
| Time | Temp. | Humidity | Pressure | Rain* | Wind** | Luminosity | Snow |
|---|---|---|---|---|---|---|---|
| 1777872938 | 17.78° C | 37% | 1014 hPa | 0 mm | - | - | - |
| 1777872337 | 18.89° C | 35% | 1014.1 hPa | 0 mm | - | - | - |
| 1777867536 | 19.44° C | 35% | 1013.5 hPa | 0 mm | - | - | - |
| 1777860935 | 23.33° C | 35% | 1012 hPa | 0 mm | - | - | - |
| 1777859735 | 24.44° C | 33% | 1013.2 hPa | 0 mm | - | - | - |
| 1777853155 | 27.78° C | 24% | 1013.8 hPa | 0 mm | - | - | - |
| 1777851935 | 28.33° C | 24% | 1014.9 hPa | 0 mm | - | - | - |
| 1777847134 | 28.33° C | 22% | 1015.1 hPa | 0 mm | - | - | - |
| 1777839934 | 26.67° C | 25% | 1017.6 hPa | 0 mm | - | - | - |
| 1777828533 | 20° C | 41% | 1020.9 hPa | 0 mm | - | - | - |
| 1777827933 | 19.44° C | 40% | 1020.8 hPa | 0 mm | - | - | - |
| 1777826733 | 19.44° C | 41% | 1020.8 hPa | 0 mm | - | - | - |
| 1777824953 | 18.33° C | 41% | 1020.6 hPa | 0 mm | - | - | - |
| 1777822532 | 17.22° C | 44% | 1020.4 hPa | 0 mm | - | - | - |
| 1777821953 | 16.11° C | 46% | 1020.4 hPa | 0 mm | - | - | - |
| 1777811732 | 9.44° C | 61% | 1020.6 hPa | 0 mm | - | - | - |
| 1777808132 | 10.56° C | 56% | 1020.5 hPa | 0 mm | - | - | - |
| 1777807573 | 10.56° C | 55% | 1020.6 hPa | 0 mm | - | - | - |
| 1777806932 | 10.56° C | 53% | 1020.6 hPa | 0 mm | - | - | - |
| 1777802733 | 11.67° C | 52% | 1020.7 hPa | 0 mm | - | - | - |
| 1777800932 | 12.78° C | 49% | 1020.5 hPa | 0 mm | - | - | - |
| 1777797933 | 13.89° C | 45% | 1020.6 hPa | 0 mm | - | - | - |
| 1777797332 | 13.89° C | 45% | 1020.6 hPa | 0 mm | - | - | - |
| 1777794333 | 14.44° C | 43% | 1020.5 hPa | 0 mm | - | - | - |
| 1777788931 | 16.11° C | 40% | 1019 hPa | 0 mm | - | - | - |
* Rain latest hour (hover to see other rain measurements)
** Current wind speed in m/s (hover to see current wind gust speed)